sensor_id;sensor_type;location;lat;lon;timestamp;temperature;humidity
77277;DHT22;66330;52.166;9.978;2024-03-25T00:01:39;6.20;99.90
77277;DHT22;66330;52.166;9.978;2024-03-25T00:04:04;6.70;99.90
77277;DHT22;66330;52.166;9.978;2024-03-25T00:06:30;6.00;99.90
77277;DHT22;66330;52.166;9.978;2024-03-25T00:09:03;6.20;99.90
77277;DHT22;66330;52.166;9.978;2024-03-25T00:11:28;5.90;99.90
77277;DHT22;66330;52.166;9.978;2024-03-25T00:13:54;5.80;99.90
77277;DHT22;66330;52.166;9.978;2024-03-25T00:16:19;6.40;99.90
77277;DHT22;66330;52.166;9.978;2024-03-25T00:18:45;6.60;99.90
77277;DHT22;66330;52.166;9.978;2024-03-25T00:21:11;6.40;99.90
77277;DHT22;66330;52.166;9.978;2024-03-25T00:23:36;5.60;99.90
77277;DHT22;66330;52.166;9.978;2024-03-25T00:26:02;6.20;99.90
77277;DHT22;66330;52.166;9.978;2024-03-25T00:28:28;5.60;99.90
77277;DHT22;66330;52.166;9.978;2024-03-25T00:30:53;5.60;99.90
77277;DHT22;66330;52.166;9.978;2024-03-25T00:33:19;6.30;99.90
77277;DHT22;66330;52.166;9.978;2024-03-25T00:35:44;6.30;99.90
77277;DHT22;66330;52.166;9.978;2024-03-25T00:38:11;5.70;99.90
77277;DHT22;66330;52.166;9.978;2024-03-25T00:40:37;5.90;99.90
77277;DHT22;66330;52.166;9.978;2024-03-25T00:43:03;5.60;99.90
77277;DHT22;66330;52.166;9.978;2024-03-25T00:45:29;5.60;99.90
77277;DHT22;66330;52.166;9.978;2024-03-25T00:47:59;5.60;99.90
77277;DHT22;66330;52.166;9.978;2024-03-25T00:50:25;5.60;99.90
77277;DHT22;66330;52.166;9.978;2024-03-25T00:52:51;5.40;99.90
77277;DHT22;66330;52.166;9.978;2024-03-25T00:55:18;5.50;99.90
77277;DHT22;66330;52.166;9.978;2024-03-25T00:57:44;6.00;99.90
77277;DHT22;66330;52.166;9.978;2024-03-25T01:00:10;6.00;99.90
77277;DHT22;66330;52.166;9.978;2024-03-25T01:02:36;5.50;99.90
77277;DHT22;66330;52.166;9.978;2024-03-25T01:05:03;6.10;99.90
77277;DHT22;66330;52.166;9.978;2024-03-25T01:07:30;5.60;99.90
77277;DHT22;66330;52.166;9.978;2024-03-25T01:09:56;5.50;99.90
77277;DHT22;66330;52.166;9.978;2024-03-25T01:12:21;5.50;99.90
77277;DHT22;66330;52.166;9.978;2024-03-25T01:14:47;6.20;99.90
77277;DHT22;66330;52.166;9.978;2024-03-25T01:17:12;5.50;99.90
77277;DHT22;66330;52.166;9.978;2024-03-25T01:19:38;5.50;99.90
77277;DHT22;66330;52.166;9.978;2024-03-25T01:22:04;5.50;99.90
77277;DHT22;66330;52.166;9.978;2024-03-25T01:24:30;5.50;99.90
77277;DHT22;66330;52.166;9.978;2024-03-25T01:26:56;5.50;99.90
77277;DHT22;66330;52.166;9.978;2024-03-25T01:29:21;5.60;99.90
77277;DHT22;66330;52.166;9.978;2024-03-25T01:31:47;6.20;99.90
77277;DHT22;66330;52.166;9.978;2024-03-25T01:34:12;5.60;99.90
77277;DHT22;66330;52.166;9.978;2024-03-25T01:36:38;6.30;99.90
77277;DHT22;66330;52.166;9.978;2024-03-25T01:39:05;5.60;99.90
77277;DHT22;66330;52.166;9.978;2024-03-25T01:41:30;6.20;99.90
77277;DHT22;66330;52.166;9.978;2024-03-25T01:43:56;6.40;99.90
77277;DHT22;66330;52.166;9.978;2024-03-25T01:46:22;5.70;99.90
77277;DHT22;66330;52.166;9.978;2024-03-25T01:48:48;6.30;99.90
77277;DHT22;66330;52.166;9.978;2024-03-25T01:51:17;5.70;99.90
77277;DHT22;66330;52.166;9.978;2024-03-25T01:53:43;6.30;99.90
77277;DHT22;66330;52.166;9.978;2024-03-25T01:56:10;5.70;99.90
77277;DHT22;66330;52.166;9.978;2024-03-25T01:58:36;5.70;99.90
77277;DHT22;66330;52.166;9.978;2024-03-25T02:01:03;6.30;99.90
77277;DHT22;66330;52.166;9.978;2024-03-25T02:03:29;5.70;99.90
77277;DHT22;66330;52.166;9.978;2024-03-25T02:06:03;5.90;99.90
77277;DHT22;66330;52.166;9.978;2024-03-25T02:08:32;5.70;99.90
77277;DHT22;66330;52.166;9.978;2024-03-25T02:10:58;6.40;99.90
77277;DHT22;66330;52.166;9.978;2024-03-25T02:13:25;5.80;99.90
77277;DHT22;66330;52.166;9.978;2024-03-25T02:15:50;5.70;99.90
77277;DHT22;66330;52.166;9.978;2024-03-25T02:18:20;5.70;99.90
77277;DHT22;66330;52.166;9.978;2024-03-25T02:20:46;6.40;99.90
77277;DHT22;66330;52.166;9.978;2024-03-25T02:23:12;6.40;99.90
77277;DHT22;66330;52.166;9.978;2024-03-25T02:25:40;6.30;99.90
77277;DHT22;66330;52.166;9.978;2024-03-25T02:28:06;6.20;99.90
77277;DHT22;66330;52.166;9.978;2024-03-25T02:30:32;5.60;99.90
77277;DHT22;66330;52.166;9.978;2024-03-25T02:32:58;5.60;99.90
77277;DHT22;66330;52.166;9.978;2024-03-25T02:35:25;5.50;99.90
77277;DHT22;66330;52.166;9.978;2024-03-25T02:37:51;5.90;99.90
77277;DHT22;66330;52.166;9.978;2024-03-25T02:40:18;5.60;99.90
77277;DHT22;66330;52.166;9.978;2024-03-25T02:42:44;5.50;99.90
77277;DHT22;66330;52.166;9.978;2024-03-25T02:45:10;6.00;99.90
77277;DHT22;66330;52.166;9.978;2024-03-25T02:47:36;5.50;99.90
77277;DHT22;66330;52.166;9.978;2024-03-25T02:50:01;5.80;99.90
77277;DHT22;66330;52.166;9.978;2024-03-25T02:52:27;5.40;99.90
77277;DHT22;66330;52.166;9.978;2024-03-25T02:54:53;6.00;99.90
77277;DHT22;66330;52.166;9.978;2024-03-25T02:57:20;6.00;99.90
77277;DHT22;66330;52.166;9.978;2024-03-25T02:59:45;5.40;99.90
77277;DHT22;66330;52.166;9.978;2024-03-25T03:02:11;6.00;99.90
77277;DHT22;66330;52.166;9.978;2024-03-25T03:04:36;5.40;99.90
77277;DHT22;66330;52.166;9.978;2024-03-25T03:07:02;5.40;99.90
77277;DHT22;66330;52.166;9.978;2024-03-25T03:09:28;5.40;99.90
77277;DHT22;66330;52.166;9.978;2024-03-25T03:11:53;5.40;99.90
77277;DHT22;66330;52.166;9.978;2024-03-25T03:14:19;6.00;99.90
77277;DHT22;66330;52.166;9.978;2024-03-25T03:16:44;5.30;99.90
77277;DHT22;66330;52.166;9.978;2024-03-25T03:19:10;5.50;99.90
77277;DHT22;66330;52.166;9.978;2024-03-25T03:21:36;5.80;99.90
77277;DHT22;66330;52.166;9.978;2024-03-25T03:24:02;5.40;99.90
77277;DHT22;66330;52.166;9.978;2024-03-25T03:26:28;5.80;99.90
77277;DHT22;66330;52.166;9.978;2024-03-25T03:28:54;5.40;99.90
77277;DHT22;66330;52.166;9.978;2024-03-25T03:31:20;6.00;99.90
77277;DHT22;66330;52.166;9.978;2024-03-25T03:33:49;5.60;99.90
77277;DHT22;66330;52.166;9.978;2024-03-25T03:36:19;5.80;99.90
77277;DHT22;66330;52.166;9.978;2024-03-25T03:38:45;5.40;99.90
77277;DHT22;66330;52.166;9.978;2024-03-25T03:41:11;6.00;99.90
77277;DHT22;66330;52.166;9.978;2024-03-25T03:43:37;5.70;99.90
77277;DHT22;66330;52.166;9.978;2024-03-25T03:46:03;5.40;99.90
77277;DHT22;66330;52.166;9.978;2024-03-25T03:48:29;5.40;99.90
77277;DHT22;66330;52.166;9.978;2024-03-25T03:50:55;6.00;99.90
77277;DHT22;66330;52.166;9.978;2024-03-25T03:53:21;5.90;99.90
77277;DHT22;66330;52.166;9.978;2024-03-25T03:55:56;6.00;99.90
77277;DHT22;66330;52.166;9.978;2024-03-25T03:58:22;5.50;99.90
77277;DHT22;66330;52.166;9.978;2024-03-25T04:00:48;6.20;99.90
77277;DHT22;66330;52.166;9.978;2024-03-25T04:03:14;5.50;99.90
77277;DHT22;66330;52.166;9.978;2024-03-25T04:05:39;5.50;99.90
77277;DHT22;66330;52.166;9.978;2024-03-25T04:08:05;5.50;99.90
77277;DHT22;66330;52.166;9.978;2024-03-25T04:10:31;5.50;99.90
77277;DHT22;66330;52.166;9.978;2024-03-25T04:12:56;5.50;99.90
77277;DHT22;66330;52.166;9.978;2024-03-25T04:15:22;5.50;99.90
77277;DHT22;66330;52.166;9.978;2024-03-25T04:17:48;6.10;99.90
77277;DHT22;66330;52.166;9.978;2024-03-25T04:20:15;5.90;99.90
77277;DHT22;66330;52.166;9.978;2024-03-25T04:22:47;5.60;99.90
77277;DHT22;66330;52.166;9.978;2024-03-25T04:25:13;5.40;99.90
77277;DHT22;66330;52.166;9.978;2024-03-25T04:27:42;5.40;99.90
77277;DHT22;66330;52.166;9.978;2024-03-25T04:30:09;5.40;99.90
77277;DHT22;66330;52.166;9.978;2024-03-25T04:32:35;5.40;99.90
77277;DHT22;66330;52.166;9.978;2024-03-25T04:35:01;5.40;99.90
77277;DHT22;66330;52.166;9.978;2024-03-25T04:37:28;5.40;99.90
77277;DHT22;66330;52.166;9.978;2024-03-25T04:39:55;5.40;99.90
77277;DHT22;66330;52.166;9.978;2024-03-25T04:42:24;6.10;99.90
77277;DHT22;66330;52.166;9.978;2024-03-25T04:44:52;5.50;99.90
77277;DHT22;66330;52.166;9.978;2024-03-25T04:47:18;5.50;99.90
77277;DHT22;66330;52.166;9.978;2024-03-25T04:49:44;5.50;99.90
77277;DHT22;66330;52.166;9.978;2024-03-25T04:52:11;6.20;99.90
77277;DHT22;66330;52.166;9.978;2024-03-25T04:54:38;6.10;99.90
77277;DHT22;66330;52.166;9.978;2024-03-25T04:57:04;5.60;99.90
77277;DHT22;66330;52.166;9.978;2024-03-25T04:59:31;5.60;99.90
77277;DHT22;66330;52.166;9.978;2024-03-25T05:01:57;5.60;99.90
77277;DHT22;66330;52.166;9.978;2024-03-25T05:04:23;5.70;99.90
77277;DHT22;66330;52.166;9.978;2024-03-25T05:06:49;5.70;99.90
77277;DHT22;66330;52.166;9.978;2024-03-25T05:09:15;6.20;99.90
77277;DHT22;66330;52.166;9.978;2024-03-25T05:11:42;4.40;99.90
77277;DHT22;66330;52.166;9.978;2024-03-25T05:14:07;6.20;99.90
77277;DHT22;66330;52.166;9.978;2024-03-25T05:16:33;5.70;99.90
77277;DHT22;66330;52.166;9.978;2024-03-25T05:18:58;5.70;99.90
77277;DHT22;66330;52.166;9.978;2024-03-25T05:21:24;5.70;99.90
77277;DHT22;66330;52.166;9.978;2024-03-25T05:23:49;5.70;99.90
77277;DHT22;66330;52.166;9.978;2024-03-25T05:26:15;5.70;99.90
77277;DHT22;66330;52.166;9.978;2024-03-25T05:28:40;5.70;99.90
77277;DHT22;66330;52.166;9.978;2024-03-25T05:31:09;5.70;99.90
77277;DHT22;66330;52.166;9.978;2024-03-25T05:33:35;5.70;99.90
77277;DHT22;66330;52.166;9.978;2024-03-25T05:36:01;6.20;99.90
77277;DHT22;66330;52.166;9.978;2024-03-25T05:38:27;5.80;99.90
77277;DHT22;66330;52.166;9.978;2024-03-25T05:40:53;5.80;99.90
77277;DHT22;66330;52.166;9.978;2024-03-25T05:43:19;5.80;99.90
77277;DHT22;66330;52.166;9.978;2024-03-25T05:45:52;5.80;99.90
77277;DHT22;66330;52.166;9.978;2024-03-25T05:48:19;6.50;99.90
77277;DHT22;66330;52.166;9.978;2024-03-25T05:50:44;5.80;99.90
77277;DHT22;66330;52.166;9.978;2024-03-25T05:53:10;6.10;99.90
77277;DHT22;66330;52.166;9.978;2024-03-25T05:55:36;6.00;99.90
77277;DHT22;66330;52.166;9.978;2024-03-25T05:58:01;6.00;99.90
77277;DHT22;66330;52.166;9.978;2024-03-25T06:00:29;6.00;99.90
77277;DHT22;66330;52.166;9.978;2024-03-25T06:02:56;6.00;99.90
77277;DHT22;66330;52.166;9.978;2024-03-25T06:05:21;6.60;99.90
77277;DHT22;66330;52.166;9.978;2024-03-25T06:07:47;6.10;99.90
77277;DHT22;66330;52.166;9.978;2024-03-25T06:10:12;6.70;99.90
77277;DHT22;66330;52.166;9.978;2024-03-25T06:12:38;6.10;99.90
77277;DHT22;66330;52.166;9.978;2024-03-25T06:15:04;6.10;99.90
77277;DHT22;66330;52.166;9.978;2024-03-25T06:17:30;6.20;99.90
77277;DHT22;66330;52.166;9.978;2024-03-25T06:19:56;6.40;99.90
77277;DHT22;66330;52.166;9.978;2024-03-25T06:22:21;6.20;99.90
77277;DHT22;66330;52.166;9.978;2024-03-25T06:24:47;6.40;99.90
77277;DHT22;66330;52.166;9.978;2024-03-25T06:27:15;6.50;99.90
77277;DHT22;66330;52.166;9.978;2024-03-25T06:29:41;6.30;99.90
77277;DHT22;66330;52.166;9.978;2024-03-25T06:32:06;6.30;99.90
77277;DHT22;66330;52.166;9.978;2024-03-25T06:34:50;6.30;99.90
77277;DHT22;66330;52.166;9.978;2024-03-25T06:37:16;6.90;99.90
77277;DHT22;66330;52.166;9.978;2024-03-25T06:39:41;6.90;99.90
77277;DHT22;66330;52.166;9.978;2024-03-25T06:42:07;6.40;99.90
77277;DHT22;66330;52.166;9.978;2024-03-25T06:44:33;6.40;99.90
77277;DHT22;66330;52.166;9.978;2024-03-25T06:46:58;6.90;99.90
77277;DHT22;66330;52.166;9.978;2024-03-25T06:49:24;7.00;99.90
77277;DHT22;66330;52.166;9.978;2024-03-25T06:51:49;6.40;99.90
77277;DHT22;66330;52.166;9.978;2024-03-25T06:54:15;6.40;99.90
77277;DHT22;66330;52.166;9.978;2024-03-25T06:56:40;7.00;99.90
77277;DHT22;66330;52.166;9.978;2024-03-25T06:59:07;7.00;99.90
77277;DHT22;66330;52.166;9.978;2024-03-25T07:01:32;6.40;99.90
77277;DHT22;66330;52.166;9.978;2024-03-25T07:03:58;6.90;99.90
77277;DHT22;66330;52.166;9.978;2024-03-25T07:06:24;6.90;99.90
77277;DHT22;66330;52.166;9.978;2024-03-25T07:08:50;6.70;99.90
77277;DHT22;66330;52.166;9.978;2024-03-25T07:11:16;6.40;99.90
77277;DHT22;66330;52.166;9.978;2024-03-25T07:13:43;6.50;99.90
77277;DHT22;66330;52.166;9.978;2024-03-25T07:16:08;6.50;99.90
77277;DHT22;66330;52.166;9.978;2024-03-25T07:18:34;7.20;99.90
77277;DHT22;66330;52.166;9.978;2024-03-25T07:20:59;6.50;99.90
77277;DHT22;66330;52.166;9.978;2024-03-25T07:23:25;7.20;99.90
77277;DHT22;66330;52.166;9.978;2024-03-25T07:25:51;6.60;99.90
77277;DHT22;66330;52.166;9.978;2024-03-25T07:28:17;6.60;99.90
77277;DHT22;66330;52.166;9.978;2024-03-25T07:30:42;6.70;99.90
77277;DHT22;66330;52.166;9.978;2024-03-25T07:33:08;7.30;99.90
77277;DHT22;66330;52.166;9.978;2024-03-25T07:35:33;6.70;99.90
77277;DHT22;66330;52.166;9.978;2024-03-25T07:38:00;7.40;99.90
77277;DHT22;66330;52.166;9.978;2024-03-25T07:40:26;7.30;99.90
77277;DHT22;66330;52.166;9.978;2024-03-25T07:42:52;6.80;99.90
77277;DHT22;66330;52.166;9.978;2024-03-25T07:45:17;6.80;99.90
77277;DHT22;66330;52.166;9.978;2024-03-25T07:47:43;7.20;99.90
77277;DHT22;66330;52.166;9.978;2024-03-25T07:50:08;6.90;99.90
77277;DHT22;66330;52.166;9.978;2024-03-25T07:52:34;6.90;99.90
77277;DHT22;66330;52.166;9.978;2024-03-25T07:55:08;7.00;99.90
77277;DHT22;66330;52.166;9.978;2024-03-25T07:57:34;7.00;99.90
77277;DHT22;66330;52.166;9.978;2024-03-25T07:59:59;7.70;99.90
77277;DHT22;66330;52.166;9.978;2024-03-25T08:02:25;7.10;99.90
77277;DHT22;66330;52.166;9.978;2024-03-25T08:04:50;7.10;99.90
77277;DHT22;66330;52.166;9.978;2024-03-25T08:07:16;7.10;99.90
77277;DHT22;66330;52.166;9.978;2024-03-25T08:09:42;7.20;99.90
77277;DHT22;66330;52.166;9.978;2024-03-25T08:12:07;7.20;99.90
77277;DHT22;66330;52.166;9.978;2024-03-25T08:14:33;7.20;99.90
77277;DHT22;66330;52.166;9.978;2024-03-25T08:16:59;7.30;99.90
77277;DHT22;66330;52.166;9.978;2024-03-25T08:19:24;8.00;99.90
77277;DHT22;66330;52.166;9.978;2024-03-25T08:21:50;7.60;99.90
77277;DHT22;66330;52.166;9.978;2024-03-25T08:24:16;7.50;99.90
77277;DHT22;66330;52.166;9.978;2024-03-25T08:26:41;7.90;99.90
77277;DHT22;66330;52.166;9.978;2024-03-25T08:29:07;8.10;99.90
77277;DHT22;66330;52.166;9.978;2024-03-25T08:31:32;7.60;99.90
77277;DHT22;66330;52.166;9.978;2024-03-25T08:33:58;7.70;99.90
77277;DHT22;66330;52.166;9.978;2024-03-25T08:36:25;7.80;99.90
77277;DHT22;66330;52.166;9.978;2024-03-25T08:38:50;7.80;99.90
77277;DHT22;66330;52.166;9.978;2024-03-25T08:41:16;7.90;99.90
77277;DHT22;66330;52.166;9.978;2024-03-25T08:43:41;8.00;99.90
77277;DHT22;66330;52.166;9.978;2024-03-25T08:46:07;8.00;99.90
77277;DHT22;66330;52.166;9.978;2024-03-25T08:48:33;8.10;99.90
77277;DHT22;66330;52.166;9.978;2024-03-25T08:50:59;8.10;99.90
77277;DHT22;66330;52.166;9.978;2024-03-25T08:53:24;8.20;99.90
77277;DHT22;66330;52.166;9.978;2024-03-25T08:55:50;8.30;99.90
77277;DHT22;66330;52.166;9.978;2024-03-25T08:58:16;8.30;99.90
77277;DHT22;66330;52.166;9.978;2024-03-25T09:00:42;8.30;99.90
77277;DHT22;66330;52.166;9.978;2024-03-25T09:03:08;9.00;99.90
77277;DHT22;66330;52.166;9.978;2024-03-25T09:05:34;8.50;99.90
77277;DHT22;66330;52.166;9.978;2024-03-25T09:08:00;8.50;99.90
77277;DHT22;66330;52.166;9.978;2024-03-25T09:10:26;8.60;99.90
77277;DHT22;66330;52.166;9.978;2024-03-25T09:13:10;8.60;99.90
77277;DHT22;66330;52.166;9.978;2024-03-25T09:15:37;8.60;99.90
77277;DHT22;66330;52.166;9.978;2024-03-25T09:18:02;8.60;99.90
77277;DHT22;66330;52.166;9.978;2024-03-25T09:20:28;8.60;99.90
77277;DHT22;66330;52.166;9.978;2024-03-25T09:22:54;8.60;99.90
77277;DHT22;66330;52.166;9.978;2024-03-25T09:25:19;8.60;99.90
77277;DHT22;66330;52.166;9.978;2024-03-25T09:27:46;8.60;99.90
77277;DHT22;66330;52.166;9.978;2024-03-25T09:30:12;8.60;99.90
77277;DHT22;66330;52.166;9.978;2024-03-25T09:32:39;8.70;99.90
77277;DHT22;66330;52.166;9.978;2024-03-25T09:35:05;9.40;99.90
77277;DHT22;66330;52.166;9.978;2024-03-25T09:37:30;8.10;99.90
77277;DHT22;66330;52.166;9.978;2024-03-25T09:39:57;8.70;99.90
77277;DHT22;66330;52.166;9.978;2024-03-25T09:42:34;8.70;99.90
77277;DHT22;66330;52.166;9.978;2024-03-25T09:45:01;8.80;99.90
77277;DHT22;66330;52.166;9.978;2024-03-25T09:47:28;9.00;99.90
77277;DHT22;66330;52.166;9.978;2024-03-25T09:49:54;9.20;99.90
77277;DHT22;66330;52.166;9.978;2024-03-25T09:52:20;9.30;99.90
77277;DHT22;66330;52.166;9.978;2024-03-25T09:54:46;9.40;99.90
77277;DHT22;66330;52.166;9.978;2024-03-25T09:57:12;9.60;99.90
77277;DHT22;66330;52.166;9.978;2024-03-25T09:59:39;9.70;99.90
77277;DHT22;66330;52.166;9.978;2024-03-25T10:02:05;9.80;99.90
77277;DHT22;66330;52.166;9.978;2024-03-25T10:04:33;9.80;99.90
77277;DHT22;66330;52.166;9.978;2024-03-25T10:06:59;10.00;99.90
77277;DHT22;66330;52.166;9.978;2024-03-25T10:09:24;10.60;99.90
77277;DHT22;66330;52.166;9.978;2024-03-25T10:11:51;10.20;99.90
77277;DHT22;66330;52.166;9.978;2024-03-25T10:14:17;10.30;99.90
77277;DHT22;66330;52.166;9.978;2024-03-25T10:16:44;10.30;99.90
77277;DHT22;66330;52.166;9.978;2024-03-25T10:19:09;10.30;99.90
77277;DHT22;66330;52.166;9.978;2024-03-25T10:21:35;10.20;99.90
77277;DHT22;66330;52.166;9.978;2024-03-25T10:24:04;10.10;99.90
77277;DHT22;66330;52.166;9.978;2024-03-25T10:26:31;10.00;99.90
77277;DHT22;66330;52.166;9.978;2024-03-25T10:29:02;10.50;99.90
77277;DHT22;66330;52.166;9.978;2024-03-25T10:31:29;9.90;99.90
77277;DHT22;66330;52.166;9.978;2024-03-25T10:33:54;10.30;99.90
77277;DHT22;66330;52.166;9.978;2024-03-25T10:36:21;9.90;99.90
77277;DHT22;66330;52.166;9.978;2024-03-25T10:38:49;10.00;99.90
77277;DHT22;66330;52.166;9.978;2024-03-25T10:41:18;10.10;99.90
77277;DHT22;66330;52.166;9.978;2024-03-25T10:43:47;10.10;99.90
77277;DHT22;66330;52.166;9.978;2024-03-25T10:46:22;10.20;99.90
77277;DHT22;66330;52.166;9.978;2024-03-25T10:49:14;10.50;99.90
77277;DHT22;66330;52.166;9.978;2024-03-25T10:51:43;10.60;99.90
77277;DHT22;66330;52.166;9.978;2024-03-25T10:54:10;11.00;99.90
77277;DHT22;66330;52.166;9.978;2024-03-25T10:56:36;11.10;99.90
77277;DHT22;66330;52.166;9.978;2024-03-25T10:59:02;11.00;99.90
77277;DHT22;66330;52.166;9.978;2024-03-25T11:01:30;13.00;99.90
77277;DHT22;66330;52.166;9.978;2024-03-25T11:03:57;11.30;99.90
77277;DHT22;66330;52.166;9.978;2024-03-25T11:06:23;11.60;99.90
77277;DHT22;66330;52.166;9.978;2024-03-25T11:08:56;11.90;99.90
77277;DHT22;66330;52.166;9.978;2024-03-25T11:11:23;12.10;99.90
77277;DHT22;66330;52.166;9.978;2024-03-25T11:13:48;12.20;99.90
77277;DHT22;66330;52.166;9.978;2024-03-25T11:16:14;12.20;99.90
77277;DHT22;66330;52.166;9.978;2024-03-25T11:18:51;12.20;99.90
77277;DHT22;66330;52.166;9.978;2024-03-25T11:21:25;12.20;99.90
77277;DHT22;66330;52.166;9.978;2024-03-25T11:23:52;12.30;99.90
77277;DHT22;66330;52.166;9.978;2024-03-25T11:26:27;12.00;99.90
77277;DHT22;66330;52.166;9.978;2024-03-25T11:29:00;12.00;99.90
77277;DHT22;66330;52.166;9.978;2024-03-25T11:31:26;11.90;99.90
77277;DHT22;66330;52.166;9.978;2024-03-25T11:33:54;11.80;99.90
77277;DHT22;66330;52.166;9.978;2024-03-25T11:36:21;12.00;99.90
77277;DHT22;66330;52.166;9.978;2024-03-25T11:39:04;12.30;99.90
77277;DHT22;66330;52.166;9.978;2024-03-25T11:41:32;11.70;99.90
77277;DHT22;66330;52.166;9.978;2024-03-25T11:43:58;11.60;99.90
77277;DHT22;66330;52.166;9.978;2024-03-25T11:46:26;11.10;99.90
77277;DHT22;66330;52.166;9.978;2024-03-25T11:48:55;12.40;99.90
77277;DHT22;66330;52.166;9.978;2024-03-25T11:51:21;11.60;99.90
77277;DHT22;66330;52.166;9.978;2024-03-25T11:53:46;11.60;99.90
77277;DHT22;66330;52.166;9.978;2024-03-25T11:56:13;11.70;99.90
77277;DHT22;66330;52.166;9.978;2024-03-25T11:58:39;11.80;99.90
77277;DHT22;66330;52.166;9.978;2024-03-25T12:01:05;11.90;99.90
77277;DHT22;66330;52.166;9.978;2024-03-25T12:03:31;12.70;99.90
77277;DHT22;66330;52.166;9.978;2024-03-25T12:06:02;12.00;99.90
77277;DHT22;66330;52.166;9.978;2024-03-25T12:08:27;12.00;99.90
77277;DHT22;66330;52.166;9.978;2024-03-25T12:10:55;12.40;99.90
77277;DHT22;66330;52.166;9.978;2024-03-25T12:13:39;11.90;99.90
77277;DHT22;66330;52.166;9.978;2024-03-25T12:16:08;12.00;99.90
77277;DHT22;66330;52.166;9.978;2024-03-25T12:18:35;12.00;99.90
77277;DHT22;66330;52.166;9.978;2024-03-25T12:21:02;12.20;99.90
77277;DHT22;66330;52.166;9.978;2024-03-25T12:23:32;11.70;99.90
77277;DHT22;66330;52.166;9.978;2024-03-25T12:26:02;11.60;99.90
77277;DHT22;66330;52.166;9.978;2024-03-25T12:28:31;11.50;99.90
77277;DHT22;66330;52.166;9.978;2024-03-25T12:30:56;11.60;99.90
77277;DHT22;66330;52.166;9.978;2024-03-25T12:33:25;11.50;99.90
77277;DHT22;66330;52.166;9.978;2024-03-25T12:35:52;11.50;99.90
77277;DHT22;66330;52.166;9.978;2024-03-25T12:38:24;11.50;99.90
77277;DHT22;66330;52.166;9.978;2024-03-25T12:40:50;11.60;99.90
77277;DHT22;66330;52.166;9.978;2024-03-25T12:43:16;11.60;99.90
77277;DHT22;66330;52.166;9.978;2024-03-25T12:45:41;12.10;99.90
77277;DHT22;66330;52.166;9.978;2024-03-25T12:48:08;12.10;99.90
77277;DHT22;66330;52.166;9.978;2024-03-25T12:50:34;11.70;99.90
77277;DHT22;66330;52.166;9.978;2024-03-25T12:53:00;11.80;99.90
77277;DHT22;66330;52.166;9.978;2024-03-25T12:55:25;11.90;99.90
77277;DHT22;66330;52.166;9.978;2024-03-25T12:57:51;11.90;99.90
77277;DHT22;66330;52.166;9.978;2024-03-25T13:00:17;11.90;99.90
77277;DHT22;66330;52.166;9.978;2024-03-25T13:02:43;11.90;99.90
77277;DHT22;66330;52.166;9.978;2024-03-25T13:05:09;11.90;99.90
77277;DHT22;66330;52.166;9.978;2024-03-25T13:07:35;12.10;99.90
77277;DHT22;66330;52.166;9.978;2024-03-25T13:10:00;12.20;99.90
77277;DHT22;66330;52.166;9.978;2024-03-25T13:12:26;12.30;99.90
77277;DHT22;66330;52.166;9.978;2024-03-25T13:14:51;12.40;99.90
77277;DHT22;66330;52.166;9.978;2024-03-25T13:17:17;12.90;99.90
77277;DHT22;66330;52.166;9.978;2024-03-25T13:19:42;12.60;99.90
77277;DHT22;66330;52.166;9.978;2024-03-25T13:22:08;12.90;99.90
77277;DHT22;66330;52.166;9.978;2024-03-25T13:24:33;13.10;99.90
77277;DHT22;66330;52.166;9.978;2024-03-25T13:26:59;13.20;99.90
77277;DHT22;66330;52.166;9.978;2024-03-25T13:29:25;13.30;99.90
77277;DHT22;66330;52.166;9.978;2024-03-25T13:31:50;13.40;99.90
77277;DHT22;66330;52.166;9.978;2024-03-25T13:34:16;13.50;99.90
77277;DHT22;66330;52.166;9.978;2024-03-25T13:36:42;13.50;99.90
77277;DHT22;66330;52.166;9.978;2024-03-25T13:39:08;13.50;99.90
77277;DHT22;66330;52.166;9.978;2024-03-25T13:41:34;13.40;99.90
77277;DHT22;66330;52.166;9.978;2024-03-25T13:43:59;13.50;99.90
77277;DHT22;66330;52.166;9.978;2024-03-25T13:46:25;13.60;99.90
77277;DHT22;66330;52.166;9.978;2024-03-25T13:48:51;13.60;99.90
77277;DHT22;66330;52.166;9.978;2024-03-25T13:51:17;14.10;99.90
77277;DHT22;66330;52.166;9.978;2024-03-25T13:53:43;13.70;99.90
77277;DHT22;66330;52.166;9.978;2024-03-25T13:56:08;13.60;99.90
77277;DHT22;66330;52.166;9.978;2024-03-25T13:58:34;13.50;99.90
77277;DHT22;66330;52.166;9.978;2024-03-25T14:01:00;13.40;99.90
77277;DHT22;66330;52.166;9.978;2024-03-25T14:03:26;13.40;99.90
77277;DHT22;66330;52.166;9.978;2024-03-25T14:05:52;13.20;99.90
77277;DHT22;66330;52.166;9.978;2024-03-25T14:08:17;13.20;99.90
77277;DHT22;66330;52.166;9.978;2024-03-25T14:10:43;13.30;99.90
77277;DHT22;66330;52.166;9.978;2024-03-25T14:13:09;13.50;99.90
77277;DHT22;66330;52.166;9.978;2024-03-25T14:15:35;13.70;99.90
77277;DHT22;66330;52.166;9.978;2024-03-25T14:18:00;13.90;99.90
77277;DHT22;66330;52.166;9.978;2024-03-25T14:20:26;14.10;99.90
77277;DHT22;66330;52.166;9.978;2024-03-25T14:22:51;14.80;99.90
77277;DHT22;66330;52.166;9.978;2024-03-25T14:25:17;14.30;99.90
77277;DHT22;66330;52.166;9.978;2024-03-25T14:27:43;14.30;99.90
77277;DHT22;66330;52.166;9.978;2024-03-25T14:30:08;14.30;99.90
77277;DHT22;66330;52.166;9.978;2024-03-25T14:32:36;14.30;99.90
77277;DHT22;66330;52.166;9.978;2024-03-25T14:35:04;14.30;99.90
77277;DHT22;66330;52.166;9.978;2024-03-25T14:37:30;14.30;99.90
77277;DHT22;66330;52.166;9.978;2024-03-25T14:39:55;14.40;99.90
77277;DHT22;66330;52.166;9.978;2024-03-25T14:42:21;14.40;99.90
77277;DHT22;66330;52.166;9.978;2024-03-25T14:44:46;14.40;99.90
77277;DHT22;66330;52.166;9.978;2024-03-25T14:47:13;14.40;99.90
77277;DHT22;66330;52.166;9.978;2024-03-25T14:49:39;14.30;99.90
77277;DHT22;66330;52.166;9.978;2024-03-25T14:52:05;14.20;99.90
77277;DHT22;66330;52.166;9.978;2024-03-25T14:54:35;14.20;99.90
77277;DHT22;66330;52.166;9.978;2024-03-25T14:57:01;14.20;99.90
77277;DHT22;66330;52.166;9.978;2024-03-25T14:59:27;14.10;99.90
77277;DHT22;66330;52.166;9.978;2024-03-25T15:01:54;16.00;99.90
77277;DHT22;66330;52.166;9.978;2024-03-25T15:04:19;14.50;99.90
77277;DHT22;66330;52.166;9.978;2024-03-25T15:06:45;13.70;99.90
77277;DHT22;66330;52.166;9.978;2024-03-25T15:09:11;13.60;99.90
77277;DHT22;66330;52.166;9.978;2024-03-25T15:11:36;13.50;99.90
77277;DHT22;66330;52.166;9.978;2024-03-25T15:14:03;13.50;99.90
77277;DHT22;66330;52.166;9.978;2024-03-25T15:16:30;13.30;99.90
77277;DHT22;66330;52.166;9.978;2024-03-25T15:18:55;13.10;99.90
77277;DHT22;66330;52.166;9.978;2024-03-25T15:21:21;12.60;99.90
77277;DHT22;66330;52.166;9.978;2024-03-25T15:23:46;12.90;99.90
77277;DHT22;66330;52.166;9.978;2024-03-25T15:26:12;12.80;99.90
77277;DHT22;66330;52.166;9.978;2024-03-25T15:28:37;13.10;99.90
77277;DHT22;66330;52.166;9.978;2024-03-25T15:31:03;12.60;99.90
77277;DHT22;66330;52.166;9.978;2024-03-25T15:33:28;12.50;99.90
77277;DHT22;66330;52.166;9.978;2024-03-25T15:35:54;12.50;99.90